Time;durP1;ratioP1;P1;durP2;ratioP2;P2;SDS_P1;SDS_P2;PMS_P1;PMS_P2;Temp;Humidity;BMP_temperature;BMP_pressure;BME280_temperature;BME280_humidity;BME280_pressure;Samples;Min_cycle;Max_cycle;Signal;HPM_P1;HPM_P2
2021/03/23 00:01:37;;;;;;;3.05;2.15;;;;;;;;;;5125975;28;20209;-62
2021/03/23 00:04:04;;;;;;;6.57;2.20;;;;;;;;;;5119405;28;20230;-62
2021/03/23 00:06:31;;;;;;;3.47;2.08;;;;;;;;;;5115894;28;20566;-61
2021/03/23 00:08:58;;;;;;;2.03;1.73;;;;;;;;;;5124683;28;20227;-62
2021/03/23 00:11:27;;;;;;;3.97;1.95;;;;;;;;;;5125292;28;20203;-62
2021/03/23 00:13:54;;;;;;;6.20;2.40;;;;;;;;;;5125899;28;20230;-61
2021/03/23 00:16:25;;;;;;;4.00;2.17;;;;;;;;;;5132017;28;20204;-62
2021/03/23 00:18:52;;;;;;;6.43;2.25;;;;;;;;;;5128736;28;20195;-62
2021/03/23 00:21:19;;;;;;;3.60;2.85;;;;;;;;;;5124660;28;20202;-62
2021/03/23 00:23:46;;;;;;;3.38;2.40;;;;;;;;;;5125208;28;20234;-62
2021/03/23 00:26:14;;;;;;;3.00;2.67;;;;;;;;;;5126569;28;20202;-62
2021/03/23 00:28:46;;;;;;;3.72;2.40;;;;;;;;;;5125310;28;20250;-61
2021/03/23 00:31:13;;;;;;;6.47;3.80;;;;;;;;;;5127307;28;20190;-62
2021/03/23 00:33:39;;;;;;;7.55;3.10;;;;;;;;;;5131229;28;20205;-61
2021/03/23 00:36:07;;;;;;;3.78;2.70;;;;;;;;;;5119797;28;20272;-63
2021/03/23 00:38:35;;;;;;;7.63;2.70;;;;;;;;;;5118551;28;20228;-62
2021/03/23 00:41:02;;;;;;;6.10;2.83;;;;;;;;;;5118140;27;20229;-62
2021/03/23 00:43:29;;;;;;;6.55;3.17;;;;;;;;;;5117973;28;20228;-61
2021/03/23 00:45:56;;;;;;;9.98;3.55;;;;;;;;;;5117947;28;20255;-61
2021/03/23 00:48:23;;;;;;;7.35;2.80;;;;;;;;;;5118025;28;20218;-61
2021/03/23 00:50:50;;;;;;;4.85;2.65;;;;;;;;;;5117885;28;20210;-62
2021/03/23 00:53:17;;;;;;;4.40;3.28;;;;;;;;;;5118189;28;20197;-62
2021/03/23 00:55:43;;;;;;;3.38;2.85;;;;;;;;;;5117838;28;20226;-63
2021/03/23 00:58:10;;;;;;;9.13;3.70;;;;;;;;;;5118058;28;20248;-63
2021/03/23 01:00:37;;;;;;;3.65;3.05;;;;;;;;;;5120756;28;20267;-62
2021/03/23 01:03:05;;;;;;;5.65;3.55;;;;;;;;;;5120026;28;20652;-62
2021/03/23 01:05:34;;;;;;;3.75;2.78;;;;;;;;;;5117416;28;20223;-61
2021/03/23 01:08:01;;;;;;;4.00;2.50;;;;;;;;;;5118447;28;20212;-62
2021/03/23 01:10:29;;;;;;;6.82;2.88;;;;;;;;;;5119434;28;20321;-61
2021/03/23 01:12:56;;;;;;;5.65;2.90;;;;;;;;;;5122009;28;20199;-61
2021/03/23 01:15:24;;;;;;;6.28;3.08;;;;;;;;;;5120366;28;20280;-61
2021/03/23 01:17:50;;;;;;;4.00;2.92;;;;;;;;;;5117577;28;20203;-62
2021/03/23 01:20:19;;;;;;;3.60;2.80;;;;;;;;;;5117282;28;20207;-63
2021/03/23 01:22:46;;;;;;;4.72;2.60;;;;;;;;;;5117558;28;20610;-63
2021/03/23 01:25:14;;;;;;;4.85;2.70;;;;;;;;;;5117360;27;20222;-63
2021/03/23 01:27:40;;;;;;;3.35;2.38;;;;;;;;;;5117203;28;20203;-62
2021/03/23 01:30:08;;;;;;;3.13;2.47;;;;;;;;;;5117627;28;20203;-62
2021/03/23 01:32:35;;;;;;;3.85;2.42;;;;;;;;;;5117756;28;20207;-62
2021/03/23 01:35:02;;;;;;;3.58;3.05;;;;;;;;;;5116259;27;20230;-61
2021/03/23 01:37:29;;;;;;;5.57;3.08;;;;;;;;;;5117063;28;20257;-61
2021/03/23 01:39:56;;;;;;;3.83;2.75;;;;;;;;;;5116496;28;20251;-60
2021/03/23 01:42:23;;;;;;;10.10;3.20;;;;;;;;;;5116578;28;20203;-62
2021/03/23 01:45:04;;;;;;;4.80;2.90;;;;;;;;;;5116886;28;20230;-62
2021/03/23 01:47:31;;;;;;;2.92;2.60;;;;;;;;;;5116272;28;20271;-62
2021/03/23 01:49:59;;;;;;;3.25;2.97;;;;;;;;;;5116441;28;20253;-61
2021/03/23 01:52:27;;;;;;;4.65;2.55;;;;;;;;;;5118663;28;20547;-61
2021/03/23 01:54:56;;;;;;;4.00;2.50;;;;;;;;;;5132906;28;20219;-61
2021/03/23 01:57:23;;;;;;;6.75;3.40;;;;;;;;;;5117339;28;20217;-63
2021/03/23 01:59:53;;;;;;;7.05;2.78;;;;;;;;;;5118734;28;20198;-61
2021/03/23 02:02:20;;;;;;;5.00;3.10;;;;;;;;;;5120393;28;20200;-61
2021/03/23 02:04:47;;;;;;;3.72;2.97;;;;;;;;;;5116324;28;20230;-62
2021/03/23 02:07:13;;;;;;;3.33;2.80;;;;;;;;;;5116133;28;20214;-61
2021/03/23 02:09:40;;;;;;;5.47;2.70;;;;;;;;;;5116292;28;20217;-61
2021/03/23 02:12:09;;;;;;;3.83;2.92;;;;;;;;;;5116475;28;20268;-61
2021/03/23 02:14:37;;;;;;;4.38;2.90;;;;;;;;;;5115940;28;20714;-61
2021/03/23 02:17:14;;;;;;;6.43;3.05;;;;;;;;;;5116293;28;20195;-62
2021/03/23 02:19:40;;;;;;;3.92;3.50;;;;;;;;;;5116154;28;20277;-62
2021/03/23 02:22:13;;;;;;;5.82;3.22;;;;;;;;;;5116658;28;20203;-62
2021/03/23 02:24:40;;;;;;;8.55;3.55;;;;;;;;;;5116634;28;20223;-62
2021/03/23 02:27:07;;;;;;;13.82;3.88;;;;;;;;;;5116521;28;20206;-61
2021/03/23 02:29:33;;;;;;;8.55;3.20;;;;;;;;;;5116014;28;20729;-61
2021/03/23 02:32:01;;;;;;;5.47;3.22;;;;;;;;;;5116184;28;20608;-62
2021/03/23 02:34:27;;;;;;;5.93;2.65;;;;;;;;;;5116522;28;20305;-61
2021/03/23 02:36:54;;;;;;;4.47;2.70;;;;;;;;;;5116917;27;20210;-61
2021/03/23 02:39:23;;;;;;;4.20;2.70;;;;;;;;;;5117667;28;20244;-62
2021/03/23 02:41:50;;;;;;;5.55;2.60;;;;;;;;;;5115645;28;20203;-60
2021/03/23 02:44:17;;;;;;;4.78;2.80;;;;;;;;;;5115517;28;20733;-61
2021/03/23 02:46:43;;;;;;;3.83;2.65;;;;;;;;;;5114673;28;20205;-61
2021/03/23 02:49:10;;;;;;;3.03;2.67;;;;;;;;;;5115831;28;20246;-62
2021/03/23 02:51:37;;;;;;;4.55;2.60;;;;;;;;;;5115377;28;20614;-61
2021/03/23 02:54:04;;;;;;;4.63;3.03;;;;;;;;;;5115160;28;20222;-62
2021/03/23 02:56:32;;;;;;;5.45;3.25;;;;;;;;;;5115287;28;20690;-61
2021/03/23 02:58:58;;;;;;;4.00;2.70;;;;;;;;;;5116724;28;20207;-61
2021/03/23 03:01:25;;;;;;;3.95;2.45;;;;;;;;;;5115758;28;20198;-62
2021/03/23 03:03:52;;;;;;;7.28;2.70;;;;;;;;;;5123075;28;20237;-62
2021/03/23 03:06:19;;;;;;;4.28;2.70;;;;;;;;;;5134526;28;20243;-62
2021/03/23 03:08:46;;;;;;;5.60;3.15;;;;;;;;;;5117295;28;20255;-61
2021/03/23 03:11:12;;;;;;;4.68;2.85;;;;;;;;;;5121970;28;20251;-62
2021/03/23 03:13:42;;;;;;;3.35;2.72;;;;;;;;;;5127323;28;20207;-61
2021/03/23 03:16:09;;;;;;;6.82;3.10;;;;;;;;;;5124513;28;20277;-63
2021/03/23 03:18:35;;;;;;;5.07;3.03;;;;;;;;;;5118113;28;20199;-62
2021/03/23 03:21:02;;;;;;;5.93;3.50;;;;;;;;;;5116438;28;20666;-61
2021/03/23 03:23:30;;;;;;;4.50;3.03;;;;;;;;;;5116306;27;20233;-62
2021/03/23 03:25:57;;;;;;;6.50;3.40;;;;;;;;;;5115229;28;20229;-62
2021/03/23 03:28:24;;;;;;;4.88;3.55;;;;;;;;;;5115332;28;20649;-62
2021/03/23 03:30:52;;;;;;;6.90;4.00;;;;;;;;;;5114617;28;20206;-62
2021/03/23 03:33:20;;;;;;;5.85;3.33;;;;;;;;;;5117406;28;20213;-61
2021/03/23 03:35:47;;;;;;;7.47;4.20;;;;;;;;;;5126027;28;20216;-63
2021/03/23 03:38:15;;;;;;;6.60;3.63;;;;;;;;;;5114362;28;20724;-62
2021/03/23 03:40:42;;;;;;;5.47;3.95;;;;;;;;;;5114862;28;20229;-63
2021/03/23 03:43:10;;;;;;;7.85;4.10;;;;;;;;;;5115184;28;20207;-63
2021/03/23 03:45:37;;;;;;;5.30;3.53;;;;;;;;;;5115216;28;20233;-61
2021/03/23 03:48:05;;;;;;;9.30;4.20;;;;;;;;;;5114979;28;20260;-62
2021/03/23 03:50:32;;;;;;;6.47;4.30;;;;;;;;;;5114326;28;20203;-62
2021/03/23 03:52:59;;;;;;;6.82;4.28;;;;;;;;;;5114561;28;20267;-62
2021/03/23 03:55:28;;;;;;;5.80;4.28;;;;;;;;;;5115319;28;20219;-61
2021/03/23 03:57:55;;;;;;;9.45;4.20;;;;;;;;;;5114418;28;20226;-62
2021/03/23 04:00:23;;;;;;;7.65;4.70;;;;;;;;;;5114475;28;20268;-61
2021/03/23 04:02:50;;;;;;;5.45;3.92;;;;;;;;;;5115101;28;20243;-62
2021/03/23 04:07:53;;;;;;;5.22;4.00;;;;;;;;;;5133279;27;20542;-62
2021/03/23 04:10:20;;;;;;;6.70;5.00;;;;;;;;;;5132290;27;20206;-61
2021/03/23 04:12:47;;;;;;;10.48;4.60;;;;;;;;;;5132276;27;20194;-62
2021/03/23 04:15:17;;;;;;;5.75;4.10;;;;;;;;;;5132435;27;20219;-60
2021/03/23 04:17:43;;;;;;;8.27;4.72;;;;;;;;;;5132630;27;20199;-63
2021/03/23 04:20:11;;;;;;;10.88;4.78;;;;;;;;;;5132006;27;20198;-61
2021/03/23 04:22:39;;;;;;;7.10;4.45;;;;;;;;;;5131579;27;20579;-62
2021/03/23 04:25:07;;;;;;;6.60;5.00;;;;;;;;;;5132524;27;20223;-62
2021/03/23 04:27:34;;;;;;;7.85;4.70;;;;;;;;;;5131861;27;20694;-61
2021/03/23 04:30:01;;;;;;;6.82;4.95;;;;;;;;;;5131977;27;20210;-63
2021/03/23 04:32:28;;;;;;;6.05;4.63;;;;;;;;;;5131726;27;20206;-61
2021/03/23 04:34:54;;;;;;;6.70;4.75;;;;;;;;;;5131451;27;20758;-63
2021/03/23 04:37:21;;;;;;;8.25;4.70;;;;;;;;;;5131848;27;20196;-61
2021/03/23 04:39:48;;;;;;;8.30;4.95;;;;;;;;;;5132102;27;20256;-61
2021/03/23 04:42:15;;;;;;;6.35;4.30;;;;;;;;;;5132035;27;20214;-61
2021/03/23 04:44:42;;;;;;;7.30;5.97;;;;;;;;;;5131827;27;20719;-62
2021/03/23 04:47:09;;;;;;;8.65;4.70;;;;;;;;;;5132869;27;20211;-61
2021/03/23 04:49:36;;;;;;;11.48;5.60;;;;;;;;;;5132329;27;20199;-62
2021/03/23 04:52:03;;;;;;;7.78;5.50;;;;;;;;;;5131813;27;20195;-62
2021/03/23 04:54:30;;;;;;;8.63;5.07;;;;;;;;;;5131358;27;20219;-61
2021/03/23 04:56:57;;;;;;;5.72;5.00;;;;;;;;;;5131557;27;20655;-62
2021/03/23 04:59:25;;;;;;;7.60;5.20;;;;;;;;;;5131852;27;20199;-63
2021/03/23 05:01:51;;;;;;;8.82;5.50;;;;;;;;;;5132802;27;20551;-61
2021/03/23 05:04:19;;;;;;;6.10;5.25;;;;;;;;;;5132871;27;20219;-62
2021/03/23 05:06:46;;;;;;;9.02;5.72;;;;;;;;;;5131125;27;20230;-62
2021/03/23 05:09:13;;;;;;;7.80;5.90;;;;;;;;;;5131128;27;20667;-61
2021/03/23 05:11:40;;;;;;;12.23;5.75;;;;;;;;;;5131002;27;20667;-61
2021/03/23 05:14:08;;;;;;;7.18;5.10;;;;;;;;;;5131087;27;20218;-60
2021/03/23 05:16:36;;;;;;;8.35;6.03;;;;;;;;;;5131092;27;20202;-60
2021/03/23 05:19:03;;;;;;;7.93;5.10;;;;;;;;;;5118202;27;20208;-61
2021/03/23 05:21:30;;;;;;;8.65;5.00;;;;;;;;;;5117302;28;20200;-62
2021/03/23 05:23:57;;;;;;;7.55;5.18;;;;;;;;;;5117321;28;20222;-62
2021/03/23 05:26:25;;;;;;;7.25;5.65;;;;;;;;;;5117742;28;20275;-62
2021/03/23 05:28:52;;;;;;;7.00;4.70;;;;;;;;;;5116949;28;20199;-62
2021/03/23 05:31:18;;;;;;;5.65;4.78;;;;;;;;;;5116541;28;20261;-62
2021/03/23 05:33:46;;;;;;;11.00;6.47;;;;;;;;;;5116677;28;20224;-61
2021/03/23 05:36:13;;;;;;;8.00;5.32;;;;;;;;;;5116612;28;20199;-61
2021/03/23 05:38:39;;;;;;;14.52;6.28;;;;;;;;;;5116994;28;20573;-61
2021/03/23 05:41:07;;;;;;;7.30;5.07;;;;;;;;;;5116753;28;20667;-62
2021/03/23 05:43:55;;;;;;;7.07;5.55;;;;;;;;;;5116149;28;20200;-62
2021/03/23 05:46:27;;;;;;;9.65;4.65;;;;;;;;;;5111676;28;20216;-62
2021/03/23 05:49:08;;;;;;;7.82;5.47;;;;;;;;;;5116867;28;20188;-62
2021/03/23 05:51:40;;;;;;;7.25;4.50;;;;;;;;;;5116560;28;20198;-63
2021/03/23 05:54:09;;;;;;;7.13;5.35;;;;;;;;;;5116736;28;20227;-62
2021/03/23 05:56:38;;;;;;;9.32;4.90;;;;;;;;;;5116498;28;20203;-61
2021/03/23 05:59:08;;;;;;;5.72;4.88;;;;;;;;;;5120658;28;20203;-61
2021/03/23 06:01:39;;;;;;;6.15;5.53;;;;;;;;;;5116999;28;20203;-61
2021/03/23 06:04:19;;;;;;;8.30;5.47;;;;;;;;;;5117156;28;20234;-62
2021/03/23 06:06:50;;;;;;;7.25;5.82;;;;;;;;;;5117223;27;20219;-62
2021/03/23 06:09:18;;;;;;;6.93;5.10;;;;;;;;;;5118288;28;20287;-61
2021/03/23 06:11:53;;;;;;;8.93;5.53;;;;;;;;;;5116043;28;20551;-62
2021/03/23 06:14:37;;;;;;;8.93;4.95;;;;;;;;;;5121985;28;20624;-61
2021/03/23 06:17:17;;;;;;;6.38;5.35;;;;;;;;;;5134398;28;20203;-62
2021/03/23 06:19:46;;;;;;;8.70;5.00;;;;;;;;;;5117191;27;20195;-62
2021/03/23 06:22:20;;;;;;;9.10;5.50;;;;;;;;;;5120559;27;20597;-63
2021/03/23 06:24:53;;;;;;;7.38;5.45;;;;;;;;;;5117585;28;20768;-62
2021/03/23 06:27:24;;;;;;;6.93;5.07;;;;;;;;;;5115659;28;20204;-63
2021/03/23 06:30:02;;;;;;;7.35;5.50;;;;;;;;;;5116258;28;20180;-62
2021/03/23 06:32:47;;;;;;;6.75;5.35;;;;;;;;;;5116755;28;20282;-61
2021/03/23 06:35:16;;;;;;;6.05;4.75;;;;;;;;;;5115245;28;20230;-62
2021/03/23 06:37:43;;;;;;;11.43;5.50;;;;;;;;;;5115936;27;20202;-62
2021/03/23 06:40:11;;;;;;;9.65;5.75;;;;;;;;;;5115327;28;20214;-62
2021/03/23 06:42:39;;;;;;;8.13;4.70;;;;;;;;;;5116647;28;20578;-61
2021/03/23 06:45:13;;;;;;;9.93;4.78;;;;;;;;;;5115308;28;20223;-63
2021/03/23 06:47:40;;;;;;;6.03;4.65;;;;;;;;;;5114875;28;20200;-61
2021/03/23 06:50:17;;;;;;;7.43;4.40;;;;;;;;;;5115167;28;20200;-62
2021/03/23 06:52:43;;;;;;;4.85;3.78;;;;;;;;;;5115634;28;20183;-60
2021/03/23 06:55:24;;;;;;;7.25;4.28;;;;;;;;;;5118044;28;20219;-60
2021/03/23 06:57:51;;;;;;;6.50;4.70;;;;;;;;;;5120274;28;20203;-60
2021/03/23 07:00:21;;;;;;;4.53;4.13;;;;;;;;;;5120395;28;20195;-62
2021/03/23 07:02:48;;;;;;;7.43;4.40;;;;;;;;;;5121040;28;20202;-62
2021/03/23 07:05:38;;;;;;;7.32;4.32;;;;;;;;;;5125980;28;20218;-61
2021/03/23 07:08:18;;;;;;;5.35;3.88;;;;;;;;;;5113158;28;20220;-61
2021/03/23 07:11:01;;;;;;;6.80;4.07;;;;;;;;;;5124912;28;20188;-62
2021/03/23 07:13:32;;;;;;;4.70;4.30;;;;;;;;;;5123142;28;20708;-62
2021/03/23 07:16:01;;;;;;;4.20;3.72;;;;;;;;;;5121432;28;20205;-62
2021/03/23 07:18:29;;;;;;;4.65;3.67;;;;;;;;;;5120104;28;20728;-61
2021/03/23 07:20:58;;;;;;;4.32;3.70;;;;;;;;;;5120182;28;20210;-61
2021/03/23 07:23:36;;;;;;;5.00;4.50;;;;;;;;;;5116972;28;20215;-62
2021/03/23 07:26:17;;;;;;;5.13;4.63;;;;;;;;;;5115806;28;20231;-62
2021/03/23 07:28:45;;;;;;;7.05;3.78;;;;;;;;;;5113440;28;20735;-61
2021/03/23 07:31:18;;;;;;;5.80;4.47;;;;;;;;;;5114520;28;20690;-62
2021/03/23 07:34:09;;;;;;;7.85;4.50;;;;;;;;;;5115978;28;20606;-62
2021/03/23 07:36:39;;;;;;;4.35;3.50;;;;;;;;;;5099997;28;20199;-62
2021/03/23 07:39:10;;;;;;;5.95;4.30;;;;;;;;;;5114830;28;20259;-61
2021/03/23 07:41:41;;;;;;;5.88;3.97;;;;;;;;;;5114021;28;20195;-61
2021/03/23 07:44:16;;;;;;;8.05;4.28;;;;;;;;;;5113585;28;20272;-61
2021/03/23 07:46:45;;;;;;;5.18;4.07;;;;;;;;;;5113849;28;20207;-62
2021/03/23 07:49:29;;;;;;;6.78;4.30;;;;;;;;;;5113820;28;20203;-62
2021/03/23 07:51:58;;;;;;;7.45;4.10;;;;;;;;;;5113708;28;20194;-62
2021/03/23 07:54:31;;;;;;;6.43;4.65;;;;;;;;;;5113858;28;20219;-60
2021/03/23 07:57:15;;;;;;;4.13;3.72;;;;;;;;;;5114027;28;20183;-62
2021/03/23 07:59:55;;;;;;;7.47;4.35;;;;;;;;;;5113991;28;20188;-62
2021/03/23 08:02:39;;;;;;;6.18;3.92;;;;;;;;;;5113743;28;20481;-62
2021/03/23 08:05:09;;;;;;;5.60;4.35;;;;;;;;;;5114088;28;20268;-61
2021/03/23 08:07:39;;;;;;;8.75;4.47;;;;;;;;;;5115473;28;20215;-62
2021/03/23 08:10:15;;;;;;;12.88;5.07;;;;;;;;;;5114509;28;20227;-61
2021/03/23 08:12:50;;;;;;;5.45;3.78;;;;;;;;;;5114404;28;20194;-63
2021/03/23 08:15:41;;;;;;;5.07;3.95;;;;;;;;;;5114474;28;20219;-62
2021/03/23 08:18:14;;;;;;;5.18;3.72;;;;;;;;;;5056917;28;20213;-62
2021/03/23 08:20:53;;;;;;;6.60;4.38;;;;;;;;;;5114561;28;20215;-61
2021/03/23 08:23:25;;;;;;;8.38;4.57;;;;;;;;;;5114364;28;20186;-62
2021/03/23 08:25:58;;;;;;;5.28;4.38;;;;;;;;;;5114062;28;20186;-60
2021/03/23 08:28:32;;;;;;;7.03;3.55;;;;;;;;;;5114245;28;20186;-61
2021/03/23 08:31:05;;;;;;;4.68;3.90;;;;;;;;;;5113993;28;20193;-61
2021/03/23 08:33:41;;;;;;;6.93;4.28;;;;;;;;;;5114501;28;20240;-63
2021/03/23 08:36:16;;;;;;;5.90;4.55;;;;;;;;;;5115680;28;20192;-62
2021/03/23 08:38:47;;;;;;;7.20;4.55;;;;;;;;;;5114069;28;20557;-62
2021/03/23 08:41:20;;;;;;;5.47;4.25;;;;;;;;;;5113673;28;20252;-61
2021/03/23 08:43:47;;;;;;;7.80;4.32;;;;;;;;;;5113494;28;20225;-62
2021/03/23 08:46:17;;;;;;;10.70;4.70;;;;;;;;;;5113710;28;20229;-62
2021/03/23 08:48:45;;;;;;;12.70;5.60;;;;;;;;;;5114426;28;20204;-60
2021/03/23 08:51:14;;;;;;;6.88;5.10;;;;;;;;;;5116820;28;20267;-62
2021/03/23 08:54:02;;;;;;;6.47;4.45;;;;;;;;;;5116141;28;20291;-63
2021/03/23 08:56:55;;;;;;;9.02;5.20;;;;;;;;;;5113447;28;20208;-62
2021/03/23 08:59:42;;;;;;;5.85;4.82;;;;;;;;;;5081200;28;20209;-63
2021/03/23 09:02:27;;;;;;;9.85;5.53;;;;;;;;;;5117694;28;20576;-62
2021/03/23 09:04:56;;;;;;;6.63;5.35;;;;;;;;;;5116740;28;20243;-61
2021/03/23 09:07:24;;;;;;;6.70;4.78;;;;;;;;;;5116949;28;20756;-61
2021/03/23 09:09:51;;;;;;;6.80;4.57;;;;;;;;;;5116976;28;20197;-63
2021/03/23 09:12:33;;;;;;;7.15;5.00;;;;;;;;;;5117709;28;20251;-61
2021/03/23 09:15:06;;;;;;;8.02;5.50;;;;;;;;;;5117834;28;20217;-62
2021/03/23 09:17:38;;;;;;;9.02;5.43;;;;;;;;;;5118551;28;20186;-62
2021/03/23 09:20:19;;;;;;;5.72;4.13;;;;;;;;;;5118085;28;20203;-61
2021/03/23 09:22:46;;;;;;;9.40;5.40;;;;;;;;;;5117829;28;20527;-62
2021/03/23 09:25:30;;;;;;;7.57;6.38;;;;;;;;;;5117802;28;20596;-61
2021/03/23 09:28:02;;;;;;;8.05;5.10;;;;;;;;;;5117511;28;20308;-62
2021/03/23 09:30:40;;;;;;;8.57;5.90;;;;;;;;;;5116963;28;20240;-62
2021/03/23 09:33:16;;;;;;;11.63;6.32;;;;;;;;;;5122546;28;20187;-62
2021/03/23 09:35:58;;;;;;;11.45;5.28;;;;;;;;;;5131854;28;20230;-62
2021/03/23 09:38:31;;;;;;;10.30;5.53;;;;;;;;;;5121123;28;20210;-61
2021/03/23 09:41:00;;;;;;;9.52;6.10;;;;;;;;;;5119889;28;20240;-61
2021/03/23 09:43:29;;;;;;;10.32;5.80;;;;;;;;;;5121802;28;20252;-63
2021/03/23 09:46:08;;;;;;;7.57;5.47;;;;;;;;;;5122784;28;20208;-61
2021/03/23 09:48:57;;;;;;;9.35;6.00;;;;;;;;;;5122029;28;20198;-61
2021/03/23 09:51:34;;;;;;;8.68;5.47;;;;;;;;;;5122609;28;20203;-61
2021/03/23 09:54:01;;;;;;;7.90;5.72;;;;;;;;;;5120649;28;20219;-61
2021/03/23 09:56:35;;;;;;;8.60;5.78;;;;;;;;;;5119065;28;20195;-63
2021/03/23 09:59:03;;;;;;;9.80;6.60;;;;;;;;;;5118227;28;20192;-60
2021/03/23 10:01:31;;;;;;;10.52;7.43;;;;;;;;;;5118595;28;20222;-62
2021/03/23 10:03:58;;;;;;;12.30;6.70;;;;;;;;;;5118449;28;20250;-62
2021/03/23 10:06:27;;;;;;;12.50;8.35;;;;;;;;;;5118567;28;20609;-62
2021/03/23 10:08:55;;;;;;;11.77;7.20;;;;;;;;;;5117981;28;20284;-62
2021/03/23 10:11:24;;;;;;;11.57;8.73;;;;;;;;;;5117415;28;20300;-66
2021/03/23 10:13:53;;;;;;;10.75;7.78;;;;;;;;;;5117009;28;20219;-61
2021/03/23 10:16:31;;;;;;;13.20;8.18;;;;;;;;;;5117223;28;20203;-62
2021/03/23 10:19:03;;;;;;;10.00;7.93;;;;;;;;;;5117705;28;20191;-62
2021/03/23 10:21:32;;;;;;;12.77;7.43;;;;;;;;;;5117094;28;20196;-62
2021/03/23 10:24:00;;;;;;;11.35;7.30;;;;;;;;;;5117582;28;20783;-61
2021/03/23 10:26:30;;;;;;;10.90;7.90;;;;;;;;;;5117387;28;20231;-62
2021/03/23 10:28:56;;;;;;;13.98;8.90;;;;;;;;;;5116276;27;20814;-62
2021/03/23 10:31:32;;;;;;;11.70;8.52;;;;;;;;;;5115888;27;20253;-62
2021/03/23 10:34:18;;;;;;;12.20;8.00;;;;;;;;;;5117575;28;20222;-61
2021/03/23 10:36:49;;;;;;;15.23;8.75;;;;;;;;;;5116921;28;20844;-63
2021/03/23 10:39:29;;;;;;;11.10;8.77;;;;;;;;;;5116666;28;20204;-61
2021/03/23 10:41:56;;;;;;;10.18;8.45;;;;;;;;;;5115891;28;20203;-62
2021/03/23 10:44:24;;;;;;;10.00;7.90;;;;;;;;;;5115282;28;20244;-62
2021/03/23 10:46:53;;;;;;;12.15;9.50;;;;;;;;;;5115176;28;20218;-62
2021/03/23 10:49:28;;;;;;;12.10;9.20;;;;;;;;;;5115073;28;20199;-61
2021/03/23 10:51:56;;;;;;;15.40;10.23;;;;;;;;;;5115401;28;20448;-61
2021/03/23 10:54:24;;;;;;;12.02;9.02;;;;;;;;;;5115152;28;20227;-63
2021/03/23 10:56:52;;;;;;;12.45;9.63;;;;;;;;;;5115469;28;20207;-61
2021/03/23 10:59:32;;;;;;;13.70;9.70;;;;;;;;;;5117694;28;20309;-62
2021/03/23 11:02:01;;;;;;;15.07;10.13;;;;;;;;;;5115125;28;20432;-63
2021/03/23 11:04:29;;;;;;;16.58;10.98;;;;;;;;;;5114767;28;20270;-62
2021/03/23 11:06:56;;;;;;;16.93;10.60;;;;;;;;;;5115305;28;20219;-60
2021/03/23 11:09:22;;;;;;;19.97;11.07;;;;;;;;;;5116334;28;20536;-62
2021/03/23 11:11:50;;;;;;;15.20;11.00;;;;;;;;;;5115215;28;20500;-60
2021/03/23 11:14:18;;;;;;;14.40;10.65;;;;;;;;;;5115811;28;20477;-61
2021/03/23 11:16:46;;;;;;;13.30;11.23;;;;;;;;;;5114904;28;20205;-62
2021/03/23 11:19:20;;;;;;;17.08;12.35;;;;;;;;;;5115693;28;20226;-61
2021/03/23 11:21:47;;;;;;;16.83;11.05;;;;;;;;;;5115903;28;20203;-60
2021/03/23 11:24:14;;;;;;;17.30;12.23;;;;;;;;;;5115647;28;20592;-61
2021/03/23 11:26:44;;;;;;;13.18;10.90;;;;;;;;;;5115702;28;20984;-62
2021/03/23 11:29:11;;;;;;;15.35;11.30;;;;;;;;;;5114650;28;20203;-61
2021/03/23 11:31:38;;;;;;;16.47;11.63;;;;;;;;;;5113665;28;20616;-61
2021/03/23 11:34:06;;;;;;;19.40;12.10;;;;;;;;;;5114421;28;20996;-62
2021/03/23 11:36:33;;;;;;;19.98;13.45;;;;;;;;;;5115117;28;20206;-63
2021/03/23 11:39:00;;;;;;;15.90;11.77;;;;;;;;;;5114569;28;20203;-62
2021/03/23 11:41:28;;;;;;;12.63;11.15;;;;;;;;;;5114281;28;20514;-63
2021/03/23 11:43:59;;;;;;;17.98;12.15;;;;;;;;;;5114111;28;20231;-60
2021/03/23 11:46:27;;;;;;;18.67;11.95;;;;;;;;;;5114598;28;20274;-62
2021/03/23 11:48:56;;;;;;;17.35;12.15;;;;;;;;;;5114777;28;20656;-61
2021/03/23 11:51:24;;;;;;;16.10;12.57;;;;;;;;;;5114351;28;20200;-62
2021/03/23 11:53:52;;;;;;;18.67;11.63;;;;;;;;;;5113989;28;20465;-61
2021/03/23 11:56:20;;;;;;;16.77;12.50;;;;;;;;;;5113946;28;20203;-62
2021/03/23 11:58:47;;;;;;;16.83;12.33;;;;;;;;;;5113308;28;20945;-61
2021/03/23 12:01:14;;;;;;;19.60;13.00;;;;;;;;;;5113970;28;20932;-63
2021/03/23 12:03:41;;;;;;;19.43;14.20;;;;;;;;;;5113786;28;20567;-62
2021/03/23 12:06:08;;;;;;;17.77;13.90;;;;;;;;;;5113610;28;20974;-62
2021/03/23 12:08:38;;;;;;;17.30;14.33;;;;;;;;;;5113867;28;20214;-61
2021/03/23 12:11:21;;;;;;;22.23;13.87;;;;;;;;;;5114843;28;20827;-61
2021/03/23 12:13:52;;;;;;;22.67;14.87;;;;;;;;;;5114871;28;20476;-62
2021/03/23 12:16:21;;;;;;;25.50;15.50;;;;;;;;;;5115076;28;20448;-61
2021/03/23 12:18:51;;;;;;;20.80;15.00;;;;;;;;;;5114794;28;20480;-61
2021/03/23 12:21:18;;;;;;;19.80;15.60;;;;;;;;;;5114591;28;20487;-61
2021/03/23 12:23:45;;;;;;;21.00;14.80;;;;;;;;;;5113860;28;20667;-62
2021/03/23 12:26:12;;;;;;;20.10;14.93;;;;;;;;;;5114342;28;20502;-62
2021/03/23 12:28:41;;;;;;;39.03;23.83;;;;;;;;;;5118463;28;20913;-61
2021/03/23 12:31:07;;;;;;;25.57;18.10;;;;;;;;;;5119279;28;20477;-63
2021/03/23 12:33:34;;;;;;;26.00;16.10;;;;;;;;;;5119396;28;20468;-63
2021/03/23 12:36:01;;;;;;;19.10;14.60;;;;;;;;;;5118767;28;20468;-63
2021/03/23 12:38:28;;;;;;;20.50;15.10;;;;;;;;;;5120006;28;20456;-61
2021/03/23 12:40:55;;;;;;;24.57;16.63;;;;;;;;;;5119265;28;20463;-61
2021/03/23 12:43:27;;;;;;;19.57;14.87;;;;;;;;;;5119369;28;20528;-63
2021/03/23 12:45:56;;;;;;;26.50;17.60;;;;;;;;;;5119138;28;20448;-62
2021/03/23 12:48:22;;;;;;;20.80;16.40;;;;;;;;;;5118799;28;20484;-60
2021/03/23 12:50:50;;;;;;;21.80;16.33;;;;;;;;;;5119048;28;20444;-61
2021/03/23 12:53:18;;;;;;;21.17;16.10;;;;;;;;;;5118321;27;20965;-61
2021/03/23 12:55:48;;;;;;;23.70;16.57;;;;;;;;;;5118269;28;20461;-60
2021/03/23 12:58:17;;;;;;;20.63;17.27;;;;;;;;;;5119939;28;20910;-63
2021/03/23 13:00:43;;;;;;;23.07;16.63;;;;;;;;;;5119606;28;20461;-62
2021/03/23 13:03:12;;;;;;;24.50;18.20;;;;;;;;;;5125001;28;20441;-61
2021/03/23 13:05:39;;;;;;;20.53;17.20;;;;;;;;;;5118922;28;20461;-61
2021/03/23 13:08:07;;;;;;;21.93;17.17;;;;;;;;;;5118728;28;20458;-63
2021/03/23 13:10:36;;;;;;;23.03;16.73;;;;;;;;;;5122244;28;20438;-61
2021/03/23 13:13:10;;;;;;;22.33;17.13;;;;;;;;;;5118645;28;20441;-62
2021/03/23 13:15:37;;;;;;;19.90;15.53;;;;;;;;;;5120115;28;20488;-61
2021/03/23 13:18:04;;;;;;;20.83;17.73;;;;;;;;;;5118627;28;20431;-62
2021/03/23 13:20:31;;;;;;;25.13;17.80;;;;;;;;;;5119383;28;20559;-62
2021/03/23 13:23:01;;;;;;;21.50;16.43;;;;;;;;;;5118112;27;20811;-62
2021/03/23 13:25:30;;;;;;;27.00;17.00;;;;;;;;;;5118083;28;20817;-61
2021/03/23 13:27:57;;;;;;;20.07;17.07;;;;;;;;;;5116181;28;20528;-61
2021/03/23 13:30:25;;;;;;;24.80;16.90;;;;;;;;;;5116584;28;20445;-60
2021/03/23 13:32:53;;;;;;;24.20;18.00;;;;;;;;;;5116556;28;20486;-61
2021/03/23 13:35:20;;;;;;;26.87;20.57;;;;;;;;;;5116236;28;20850;-62
2021/03/23 13:37:47;;;;;;;25.80;18.77;;;;;;;;;;5117080;28;20446;-62
2021/03/23 13:40:17;;;;;;;26.23;19.87;;;;;;;;;;5116112;28;20440;-61
2021/03/23 13:42:44;;;;;;;26.30;20.20;;;;;;;;;;5116669;28;21019;-59
2021/03/23 13:45:13;;;;;;;27.37;18.93;;;;;;;;;;5116937;28;20522;-60
2021/03/23 13:47:41;;;;;;;24.23;19.67;;;;;;;;;;5116667;28;20474;-62
2021/03/23 13:50:09;;;;;;;25.27;20.17;;;;;;;;;;5116271;28;20448;-61
2021/03/23 13:52:37;;;;;;;24.50;18.83;;;;;;;;;;5116166;28;20937;-62
2021/03/23 13:55:14;;;;;;;29.20;22.07;;;;;;;;;;5118046;28;21001;-63
2021/03/23 13:57:40;;;;;;;23.10;18.80;;;;;;;;;;5116420;28;20478;-61
2021/03/23 14:00:08;;;;;;;30.17;21.03;;;;;;;;;;5116154;28;20438;-61
2021/03/23 14:02:35;;;;;;;24.00;19.73;;;;;;;;;;5116015;28;20447;-60
2021/03/23 14:05:01;;;;;;;24.43;18.90;;;;;;;;;;5115541;28;20461;-62
2021/03/23 14:07:30;;;;;;;26.60;20.60;;;;;;;;;;5115986;27;20478;-62
2021/03/23 14:09:57;;;;;;;30.37;20.83;;;;;;;;;;5115919;28;20439;-62
2021/03/23 14:12:26;;;;;;;28.17;21.43;;;;;;;;;;5115585;28;20447;-61
2021/03/23 14:14:53;;;;;;;25.23;20.77;;;;;;;;;;5115937;28;20467;-62
2021/03/23 14:17:21;;;;;;;28.43;20.70;;;;;;;;;;5116125;27;20452;-61
2021/03/23 14:19:48;;;;;;;25.00;19.33;;;;;;;;;;5115795;28;20488;-61
2021/03/23 14:22:15;;;;;;;27.93;20.63;;;;;;;;;;5115409;28;20455;-60
2021/03/23 14:24:42;;;;;;;27.30;21.70;;;;;;;;;;5115793;28;20479;-61
2021/03/23 14:27:10;;;;;;;25.87;19.07;;;;;;;;;;5115659;28;20482;-61
2021/03/23 14:29:37;;;;;;;28.57;21.17;;;;;;;;;;5115963;27;20766;-62
2021/03/23 14:32:06;;;;;;;27.43;20.37;;;;;;;;;;5115691;28;20549;-61
2021/03/23 14:34:32;;;;;;;25.47;20.13;;;;;;;;;;5115393;27;20835;-62
2021/03/23 14:36:59;;;;;;;22.93;19.73;;;;;;;;;;5114713;28;20455;-61
2021/03/23 14:39:29;;;;;;;23.37;19.17;;;;;;;;;;5114917;28;20859;-62
2021/03/23 14:41:56;;;;;;;30.57;22.77;;;;;;;;;;5114907;28;20476;-63
2021/03/23 14:44:23;;;;;;;24.80;19.40;;;;;;;;;;5114975;28;20472;-62
2021/03/23 14:46:51;;;;;;;26.40;21.10;;;;;;;;;;5115324;28;20583;-62
2021/03/23 14:49:17;;;;;;;24.63;20.17;;;;;;;;;;5115020;28;20860;-61
2021/03/23 14:51:45;;;;;;;23.53;19.67;;;;;;;;;;5114946;28;20450;-61